Time;durP1;ratioP1;P1;durP2;ratioP2;P2;SDS_P1;SDS_P2;PMS_P1;PMS_P2;Temp;Humidity;BMP_temperature;BMP_pressure;BME280_temperature;BME280_humidity;BME280_pressure;Samples;Min_cycle;Max_cycle;Signal;HPM_P1;HPM_P2
2023/07/04 00:01:01;;;;;;;17.20;8.20;;;;;;;18.69;50.14;100056.77;113271;1233;22004;-79
2023/07/04 00:03:43;;;;;;;16.80;8.30;;;;;;;18.69;49.88;100054.88;113725;1233;23595;-79
2023/07/04 00:06:22;;;;;;;16.80;8.30;;;;;;;18.70;49.65;100055.30;113501;1233;21935;-79
2023/07/04 00:09:08;;;;;;;17.80;8.10;;;;;;;18.68;49.36;100055.40;113743;1233;23033;-81
2023/07/04 00:12:02;;;;;;;16.70;8.60;;;;;;;18.65;49.25;100055.46;113547;1233;21900;-79
2023/07/04 00:14:38;;;;;;;18.10;9.80;;;;;;;18.62;49.35;100049.59;113327;1233;21930;-78
2023/07/04 00:17:23;;;;;;;15.40;8.70;;;;;;;18.58;49.59;100047.23;112974;1239;23505;-80
2023/07/04 00:19:52;;;;;;;14.70;9.30;;;;;;;18.51;49.72;100050.73;112937;1240;21929;-79
2023/07/04 00:22:23;;;;;;;17.70;10.50;;;;;;;18.42;49.93;100052.67;112906;1240;21960;-79
2023/07/04 00:24:56;;;;;;;22.30;10.50;;;;;;;18.28;50.16;100052.48;112540;1243;21951;-79
2023/07/04 00:27:27;;;;;;;18.90;11.00;;;;;;;18.12;50.59;100051.69;112366;1243;24292;-80
2023/07/04 00:30:08;;;;;;;18.40;10.90;;;;;;;17.98;51.04;100051.73;111963;1249;21987;-78
2023/07/04 00:32:39;;;;;;;16.20;10.50;;;;;;;17.81;51.51;100055.89;111903;1249;23555;-79
2023/07/04 00:35:15;;;;;;;17.20;11.80;;;;;;;17.70;52.15;100055.29;111991;1243;21971;-79
2023/07/04 00:37:46;;;;;;;20.40;10.50;;;;;;;17.63;52.33;100054.21;112614;1239;22293;-79
2023/07/04 00:40:26;;;;;;;19.20;11.20;;;;;;;17.56;52.70;100055.54;112857;1242;24324;-80
2023/07/04 00:43:12;;;;;;;22.10;11.40;;;;;;;17.52;52.98;100050.76;112522;1240;22593;-81
2023/07/04 00:45:44;;;;;;;16.70;10.80;;;;;;;17.47;53.30;100055.00;112972;1240;21927;-80
2023/07/04 00:48:16;;;;;;;20.00;10.50;;;;;;;17.47;53.68;100060.63;112934;1238;21976;-79
2023/07/04 00:50:49;;;;;;;18.60;11.70;;;;;;;17.46;53.82;100062.45;112781;1240;23631;-80
2023/07/04 00:53:36;;;;;;;22.60;12.00;;;;;;;17.37;53.91;100065.70;112763;1240;21935;-80
2023/07/04 00:56:15;;;;;;;22.30;12.00;;;;;;;17.16;54.17;100064.00;113618;1233;23027;-79
2023/07/04 00:58:59;;;;;;;21.60;12.00;;;;;;;17.01;54.61;100076.52;113564;1233;21957;-79
2023/07/04 01:01:29;;;;;;;19.70;13.00;;;;;;;16.81;55.16;100078.00;113690;1233;21983;-78
2023/07/04 01:04:11;;;;;;;21.10;12.90;;;;;;;16.66;55.63;100076.72;113858;1233;23874;-80
2023/07/04 01:07:07;;;;;;;19.30;13.00;;;;;;;16.57;56.16;100072.05;113517;1233;24266;-79
2023/07/04 01:09:39;;;;;;;19.90;12.10;;;;;;;16.51;56.42;100075.46;113322;1233;22991;-78
2023/07/04 01:12:08;;;;;;;19.60;12.60;;;;;;;16.49;56.58;100074.37;113412;1233;23009;-79
2023/07/04 01:15:02;;;;;;;20.50;12.40;;;;;;;16.45;56.86;100074.11;113796;1233;24346;-79
2023/07/04 01:17:56;;;;;;;18.10;13.00;;;;;;;16.43;56.95;100075.13;113392;1233;23320;-79
2023/07/04 01:20:37;;;;;;;19.90;12.30;;;;;;;16.40;56.87;100075.46;113358;1233;23015;-79
2023/07/04 01:23:56;;;;;;;20.70;13.20;;;;;;;16.36;56.98;100078.57;113780;1233;21942;-80
2023/07/04 01:26:49;;;;;;;19.70;13.20;;;;;;;16.19;57.41;100082.48;113137;1241;21969;-79
2023/07/04 01:29:19;;;;;;;23.20;14.30;;;;;;;16.05;57.87;100084.93;112032;1246;21985;-80
2023/07/04 01:32:08;;;;;;;22.40;15.70;;;;;;;16.00;58.03;100082.64;111955;1246;22120;-80
2023/07/04 01:34:42;;;;;;;19.90;14.60;;;;;;;15.96;58.34;100081.68;111577;1251;23044;-80
2023/07/04 01:37:12;;;;;;;21.80;14.20;;;;;;;15.94;58.43;100081.61;111572;1253;23957;-80
2023/07/04 01:39:48;;;;;;;20.30;13.80;;;;;;;15.93;58.35;100081.14;111313;1253;22014;-80
2023/07/04 01:42:30;;;;;;;24.50;13.70;;;;;;;15.94;58.43;100082.70;111123;1257;21985;-81
2023/07/04 01:45:12;;;;;;;19.20;12.20;;;;;;;15.96;58.36;100083.41;111114;1256;22434;-80
2023/07/04 01:47:48;;;;;;;20.60;12.80;;;;;;;15.99;58.37;100085.35;111457;1252;22974;-79
2023/07/04 01:50:41;;;;;;;18.50;11.60;;;;;;;16.03;58.41;100083.88;111201;1254;22935;-79
2023/07/04 01:53:20;;;;;;;;;;;;;;;;;;;;;
2023/07/04 01:55:52;;;;;;;18.40;11.90;;;;;;;16.15;58.19;100077.98;111519;1251;22831;-79
2023/07/04 01:58:35;;;;;;;16.60;11.40;;;;;;;16.16;57.84;100078.80;111526;1251;22859;-80
2023/07/04 02:01:18;;;;;;;22.00;11.70;;;;;;;16.09;57.84;100081.94;112005;1245;23027;-79
2023/07/04 02:04:03;;;;;;;18.50;10.90;;;;;;;16.04;57.91;100080.27;112479;1238;21958;-78
2023/07/04 02:07:01;;;;;;;25.40;14.60;;;;;;;15.98;57.99;100081.34;112932;1237;23675;-78
2023/07/04 02:10:12;;;;;;;21.20;11.30;;;;;;;15.97;58.15;100080.39;112618;1242;23604;-78
2023/07/04 02:12:57;;;;;;;21.00;12.10;;;;;;;15.98;58.24;100084.03;112658;1242;23619;-79
2023/07/04 02:15:35;;;;;;;16.20;12.30;;;;;;;15.98;58.18;100082.77;111989;1246;24541;-79
2023/07/04 02:18:07;;;;;;;19.60;11.90;;;;;;;15.98;57.98;100083.48;112206;1245;23601;-77
2023/07/04 02:20:44;;;;;;;21.00;11.50;;;;;;;15.96;57.87;100083.80;112041;1246;21986;-80
2023/07/04 02:23:31;;;;;;;;;;;;;;;;;;;;;
2023/07/04 02:26:22;;;;;;;22.50;11.30;;;;;;;15.87;58.08;100086.48;111403;1251;21994;-78
2023/07/04 02:29:14;;;;;;;21.30;10.70;;;;;;;15.80;58.03;100087.44;112167;1238;22044;-79
2023/07/04 02:32:23;;;;;;;;;;;;;;;;;;;;;
2023/07/04 02:34:52;;;;;;;18.00;10.80;;;;;;;15.77;58.43;100086.89;112732;1239;21936;-79
2023/07/04 02:37:26;;;;;;;21.70;11.70;;;;;;;15.77;58.30;100086.02;112817;1238;22097;-79
2023/07/04 02:40:03;;;;;;;21.60;12.30;;;;;;;15.77;58.50;100083.96;112432;1242;22421;-80
2023/07/04 02:43:10;;;;;;;21.10;11.60;;;;;;;15.74;58.40;100086.38;113227;1237;21958;-80
2023/07/04 02:45:45;;;;;;;22.20;11.00;;;;;;;15.68;58.35;100088.33;112574;1242;21953;-78
2023/07/04 02:48:19;;;;;;;18.40;11.50;;;;;;;15.67;58.50;100085.78;112687;1242;22072;-80
2023/07/04 02:50:52;;;;;;;21.90;12.60;;;;;;;15.66;58.46;100085.69;112734;1242;23602;-81
2023/07/04 02:53:39;;;;;;;19.10;11.50;;;;;;;15.65;58.67;100083.10;112515;1242;22954;-81
2023/07/04 02:56:10;;;;;;;16.60;12.00;;;;;;;15.57;58.59;100072.22;112758;1242;21941;-81
2023/07/04 02:58:53;;;;;;;18.00;11.50;;;;;;;15.59;58.64;100077.67;112411;1236;23018;-78
2023/07/04 03:01:23;;;;;;;19.20;12.10;;;;;;;15.57;58.88;100075.66;112221;1240;21936;-80
2023/07/04 03:03:59;;;;;;;15.40;11.70;;;;;;;15.58;59.19;100073.00;112543;1237;21945;-79
2023/07/04 03:06:53;;;;;;;18.00;11.80;;;;;;;15.61;59.27;100073.54;113201;1237;21970;-80
2023/07/04 03:09:43;;;;;;;21.30;11.40;;;;;;;15.66;59.34;100071.96;112906;1238;23691;-78
2023/07/04 03:12:14;;;;;;;26.00;12.90;;;;;;;15.68;59.11;100073.11;113203;1238;21986;-79
2023/07/04 03:14:46;;;;;;;33.30;11.90;;;;;;;15.68;59.08;100072.17;112994;1237;22941;-80
2023/07/04 03:17:15;;;;;;;28.60;13.90;;;;;;;15.67;59.01;100063.66;113418;1233;21957;-79
2023/07/04 03:19:47;;;;;;;48.10;43.30;;;;;;;15.72;58.92;100071.63;112958;1239;21973;-78
2023/07/04 03:22:46;;;;;;;25.60;14.90;;;;;;;15.72;58.96;100074.09;112080;1244;22705;-78
2023/07/04 03:25:19;;;;;;;21.30;13.20;;;;;;;15.68;58.83;100070.27;111420;1248;22760;-81
2023/07/04 03:27:59;;;;;;;31.00;27.90;;;;;;;15.59;58.73;100069.95;111441;1249;23787;-79
2023/07/04 03:30:36;;;;;;;30.60;23.40;;;;;;;15.51;58.89;100077.31;111521;1248;23735;-77
2023/07/04 03:33:25;;;;;;;22.70;15.50;;;;;;;15.40;59.02;100072.20;111870;1241;24189;-78
2023/07/04 03:37:10;;;;;;;25.60;15.50;;;;;;;15.24;59.49;100065.29;111429;1251;23024;-78
2023/07/04 03:40:03;;;;;;;19.90;14.10;;;;;;;15.22;59.60;100070.13;111455;1241;21994;-81
2023/07/04 03:42:41;;;;;;;19.00;15.00;;;;;;;15.20;59.79;100075.36;111320;1249;22549;-79
2023/07/04 03:45:11;;;;;;;23.40;15.10;;;;;;;15.21;60.02;100074.78;111442;1252;23406;-81
2023/07/04 03:48:23;;;;;;;;;;;;;;;;;;;;;
2023/07/04 03:51:16;;;;;;;34.50;28.10;;;;;;;15.22;60.37;100078.41;111127;1255;22053;-78
2023/07/04 03:53:54;;;;;;;38.80;31.50;;;;;;;15.23;60.34;100077.09;111015;1258;21953;-77
2023/07/04 03:57:03;;;;;;;;;;;;;;;;;;;;;
2023/07/04 03:59:55;;;;;;;35.30;26.50;;;;;;;15.33;60.56;100075.24;110807;1258;22048;-79
2023/07/04 04:03:03;;;;;;;26.60;22.00;;;;;;;15.40;60.42;100076.05;111202;1251;21967;-78
2023/07/04 04:06:03;;;;;;;24.40;15.80;;;;;;;15.42;60.42;100078.73;111627;1243;22029;-78
2023/07/04 04:08:53;;;;;;;20.70;14.30;;;;;;;15.50;60.57;100081.96;111743;1243;21948;-79
2023/07/04 04:11:35;;;;;;;18.70;12.80;;;;;;;15.61;60.56;100078.96;111866;1246;21975;-80
2023/07/04 04:15:01;;;;;;;22.60;13.00;;;;;;;15.71;60.33;100079.02;111463;1251;23735;-78
2023/07/04 04:18:51;;;;;;;18.50;12.30;;;;;;;15.83;60.20;100082.37;112033;1246;23362;-78
2023/07/04 04:22:04;;;;;;;;;;;;;;;;;;;;;
2023/07/04 04:24:50;;;;;;;22.00;11.90;;;;;;;16.15;59.82;100092.05;111435;1253;21985;-80
2023/07/04 04:27:50;;;;;;;18.80;12.50;;;;;;;16.31;59.34;100095.89;111354;1253;22009;-79
2023/07/04 04:30:50;;;;;;;18.60;12.60;;;;;;;16.47;59.02;100093.43;111005;1255;21992;-80
2023/07/04 04:33:42;;;;;;;19.50;13.10;;;;;;;16.64;58.35;100097.73;111431;1250;23015;-79
2023/07/04 04:36:43;;;;;;;23.10;12.10;;;;;;;16.80;57.91;100103.23;111776;1246;23745;-78
2023/07/04 04:39:46;;;;;;;19.50;12.10;;;;;;;16.96;57.59;100106.54;112158;1246;21974;-81
2023/07/04 04:42:43;;;;;;;15.90;11.40;;;;;;;17.11;56.97;100101.42;112141;1243;22035;-80
2023/07/04 04:45:23;;;;;;;18.10;12.70;;;;;;;17.32;56.63;100097.84;112438;1242;22060;-77
2023/07/04 04:48:19;;;;;;;20.80;12.20;;;;;;;17.44;56.12;100087.41;112565;1237;21933;-79
2023/07/04 04:51:25;;;;;;;17.50;11.80;;;;;;;17.62;55.87;100079.06;113111;1237;21943;-80
2023/07/04 04:54:22;;;;;;;18.30;12.10;;;;;;;18.09;55.57;100102.66;112759;1241;21961;-78
2023/07/04 04:57:29;;;;;;;24.70;11.40;;;;;;;18.43;54.66;100105.23;112499;1241;23585;-79
2023/07/04 05:00:18;;;;;;;15.30;10.80;;;;;;;18.76;53.85;100109.67;112197;1242;22438;-80
2023/07/04 05:02:58;;;;;;;15.30;9.50;;;;;;;19.14;53.61;100107.48;112032;1247;23563;-79
2023/07/04 05:05:37;;;;;;;20.40;9.80;;;;;;;19.56;52.59;100106.31;111521;1251;21957;-79
2023/07/04 05:08:30;;;;;;;18.20;10.40;;;;;;;19.94;51.37;100104.16;111433;1251;21991;-79
2023/07/04 05:11:42;;;;;;;;;;;;;;;;;;;;;
2023/07/04 05:14:54;;;;;;;14.40;8.20;;;;;;;20.72;48.82;100092.31;112238;1245;23019;-78
2023/07/04 05:17:44;;;;;;;15.50;8.00;;;;;;;21.07;47.81;100107.02;112074;1245;21956;-79
2023/07/04 05:20:31;;;;;;;15.30;7.00;;;;;;;21.32;47.04;100099.91;112145;1239;23008;-80
2023/07/04 05:23:11;;;;;;;16.50;7.30;;;;;;;21.62;46.72;100097.14;112842;1233;22204;-80
2023/07/04 05:26:14;;;;;;;13.40;7.30;;;;;;;21.93;46.05;100099.42;113206;1238;22053;-84
2023/07/04 05:29:08;;;;;;;9.60;6.20;;;;;;;22.16;44.38;100100.67;109200;1238;5269219;-80
2023/07/04 05:31:46;;;;;;;10.50;6.30;;;;;;;22.25;43.73;100100.66;112572;1244;22148;-79
2023/07/04 05:34:34;;;;;;;13.70;6.10;;;;;;;22.43;43.64;100100.20;112299;1244;24408;-79
2023/07/04 05:37:37;;;;;;;14.90;6.00;;;;;;;22.75;43.32;100100.45;112377;1244;24358;-79
2023/07/04 05:40:41;;;;;;;13.10;6.70;;;;;;;22.97;42.38;100100.02;112248;1244;21970;-78
2023/07/04 05:43:46;;;;;;;13.40;7.00;;;;;;;23.12;41.71;100100.20;112614;1239;21945;-78
2023/07/04 05:46:24;;;;;;;16.70;6.20;;;;;;;23.30;41.55;100097.61;113122;1239;23697;-79
2023/07/04 05:49:08;;;;;;;12.80;5.90;;;;;;;23.63;41.22;100104.74;112122;1241;21987;-81
2023/07/04 05:51:51;;;;;;;14.60;6.30;;;;;;;23.89;40.29;100102.67;112841;1239;21972;-82
2023/07/04 05:54:37;;;;;;;17.70;7.10;;;;;;;24.15;39.60;100102.76;112089;1246;21970;-82
2023/07/04 05:57:34;;;;;;;14.90;6.80;;;;;;;24.49;39.79;100108.48;112008;1246;22008;-81
2023/07/04 06:00:16;;;;;;;11.70;5.60;;;;;;;24.73;38.29;100106.85;111952;1246;23158;-78
2023/07/04 06:02:56;;;;;;;15.70;6.80;;;;;;;24.95;38.55;100108.16;112135;1245;23017;-79
2023/07/04 06:05:40;;;;;;;12.70;5.10;;;;;;;25.27;37.68;100104.29;111919;1246;23468;-77
2023/07/04 06:08:18;;;;;;;12.90;5.10;;;;;;;25.42;36.68;100102.23;112204;1244;22756;-77
2023/07/04 06:11:34;;;;;;;9.90;4.80;;;;;;;25.45;36.18;100105.47;112079;1244;23050;-78
2023/07/04 06:14:24;;;;;;;14.30;6.30;;;;;;;25.47;36.29;100104.98;111523;1252;22741;-80
2023/07/04 06:17:31;;;;;;;13.20;5.60;;;;;;;25.74;36.48;100106.70;111739;1252;22287;-84
2023/07/04 06:20:41;;;;;;;13.70;4.80;;;;;;;26.10;35.70;100109.79;111337;1256;22104;-81
2023/07/04 06:23:29;;;;;;;14.00;5.10;;;;;;;26.24;34.84;100108.58;111130;1256;23041;-79
2023/07/04 06:26:40;;;;;;;15.10;5.60;;;;;;;26.46;34.59;100110.70;111083;1248;22031;-79
2023/07/04 06:29:31;;;;;;;12.50;4.20;;;;;;;26.84;34.20;100109.09;111228;1254;21967;-80
2023/07/04 06:32:03;;;;;;;12.10;5.40;;;;;;;27.17;33.61;100108.59;111003;1255;21969;-79
2023/07/04 06:34:42;;;;;;;11.90;5.00;;;;;;;27.39;32.61;100103.96;110638;1258;22867;-79
2023/07/04 06:37:30;;;;;;;17.20;5.10;;;;;;;27.47;32.50;100107.42;110864;1254;21991;-78
2023/07/04 06:40:23;;;;;;;10.30;4.80;;;;;;;27.61;32.29;100111.38;110782;1260;21970;-79
2023/07/04 06:43:14;;;;;;;9.90;4.80;;;;;;;27.80;31.75;100110.60;110828;1262;23633;-80
2023/07/04 06:46:01;;;;;;;9.40;4.10;;;;;;;27.85;30.70;100111.29;110831;1262;21967;-78
2023/07/04 06:49:05;;;;;;;10.30;4.80;;;;;;;27.86;30.91;100113.30;110455;1262;23064;-81
2023/07/04 06:51:54;;;;;;;16.40;5.30;;;;;;;27.90;30.68;100112.75;111154;1253;21979;-79
2023/07/04 06:54:36;;;;;;;14.80;5.10;;;;;;;27.98;30.66;100108.14;111828;1251;24293;-78
2023/07/04 06:57:07;;;;;;;8.50;4.60;;;;;;;28.15;30.28;100109.64;111322;1256;22004;-80
2023/07/04 06:59:40;;;;;;;19.10;5.00;;;;;;;28.31;29.95;100104.02;111693;1252;23642;-80
2023/07/04 07:02:16;;;;;;;14.90;4.30;;;;;;;28.45;29.85;100099.21;111302;1256;24348;-79
2023/07/04 07:04:52;;;;;;;10.70;4.50;;;;;;;28.67;29.50;100107.50;111587;1250;21946;-79
2023/07/04 07:07:33;;;;;;;11.10;5.00;;;;;;;28.90;29.06;100106.96;111394;1250;21955;-79
2023/07/04 07:10:10;;;;;;;10.70;3.90;;;;;;;29.07;28.52;100116.17;111491;1250;21969;-79
2023/07/04 07:12:58;;;;;;;7.90;4.00;;;;;;;29.15;28.40;100119.91;111286;1255;21963;-78
2023/07/04 07:15:51;;;;;;;;;;;;;;;;;;;;;
2023/07/04 07:18:40;;;;;;;12.70;4.50;;;;;;;29.15;27.97;100116.86;111934;1249;23709;-78
2023/07/04 07:21:18;;;;;;;14.10;4.10;;;;;;;29.01;27.90;100115.85;111735;1246;23594;-78
2023/07/04 07:23:53;;;;;;;13.70;4.70;;;;;;;28.96;27.87;100118.42;112016;1246;22838;-79
2023/07/04 07:26:33;;;;;;;9.50;4.00;;;;;;;28.90;27.90;100110.73;112014;1246;21964;-78
2023/07/04 07:29:24;;;;;;;;;;;;;;;;;;;;;
2023/07/04 07:32:11;;;;;;;12.80;4.50;;;;;;;28.92;27.98;100113.32;113555;1233;21971;-78
2023/07/04 07:34:45;;;;;;;9.80;4.50;;;;;;;28.96;27.83;100112.63;113642;1233;22708;-77
2023/07/04 07:37:22;;;;;;;15.60;6.40;;;;;;;28.89;27.70;100109.89;113634;1233;21956;-79
2023/07/04 07:40:04;;;;;;;11.70;4.90;;;;;;;28.76;28.06;100096.76;113715;1233;23581;-77
2023/07/04 07:42:40;;;;;;;19.70;5.00;;;;;;;28.89;28.27;100105.86;113051;1237;21929;-79
2023/07/04 07:45:13;;;;;;;10.90;3.90;;;;;;;29.08;28.11;100103.27;113107;1238;21982;-78
2023/07/04 07:47:50;;;;;;;12.10;4.10;;;;;;;29.25;27.83;100097.98;113250;1237;21919;-79
2023/07/04 07:50:20;;;;;;;10.60;4.20;;;;;;;29.29;27.67;100094.90;113078;1237;23056;-78
2023/07/04 07:53:02;;;;;;;13.20;4.40;;;;;;;29.26;27.66;100095.14;113059;1237;22173;-79
2023/07/04 07:56:08;;;;;;;8.50;4.00;;;;;;;29.31;27.66;100093.84;112334;1249;21966;-81
2023/07/04 07:59:01;;;;;;;;;;;;;;;;;;;;;
2023/07/04 08:01:58;;;;;;;12.60;5.40;;;;;;;29.37;27.58;100095.74;112074;1246;22980;-78
2023/07/04 08:04:32;;;;;;;23.00;5.70;;;;;;;29.32;27.36;100090.48;112317;1246;22425;-82
2023/07/04 08:07:10;;;;;;;12.40;4.70;;;;;;;29.25;27.33;100093.11;112003;1244;21970;-78
2023/07/04 08:09:51;;;;;;;13.90;4.00;;;;;;;29.40;27.43;100094.23;112010;1245;22853;-78
2023/07/04 08:12:25;;;;;;;13.10;4.40;;;;;;;29.61;27.35;100096.16;111847;1246;23104;-78
2023/07/04 08:15:00;;;;;;;11.20;4.60;;;;;;;29.82;27.20;100088.66;112591;1239;22059;-78
2023/07/04 08:17:37;;;;;;;12.50;4.10;;;;;;;29.99;27.05;100090.54;112573;1239;21951;-78
2023/07/04 08:20:11;;;;;;;12.00;4.30;;;;;;;30.09;26.59;100078.17;112520;1239;23032;-77
2023/07/04 08:22:46;;;;;;;13.50;6.60;;;;;;;30.18;26.39;100092.44;112716;1239;21944;-78
2023/07/04 08:25:29;;;;;;;13.20;5.10;;;;;;;30.29;26.10;100096.88;112578;1239;22706;-78
2023/07/04 08:28:01;;;;;;;10.80;4.40;;;;;;;30.32;25.75;100090.09;113247;1233;22025;-79
2023/07/04 08:30:41;;;;;;;12.10;3.80;;;;;;;30.34;25.88;100091.73;113497;1233;21976;-79
2023/07/04 08:33:18;;;;;;;7.90;3.90;;;;;;;30.42;25.61;100087.04;113411;1233;23743;-78
2023/07/04 08:35:59;;;;;;;10.80;4.60;;;;;;;30.55;25.75;100089.71;113233;1233;21935;-79
2023/07/04 08:38:38;;;;;;;11.10;3.60;;;;;;;30.64;25.78;100091.36;113549;1233;23124;-78
2023/07/04 08:41:56;;;;;;;8.10;3.60;;;;;;;30.62;25.29;100087.45;113448;1233;22429;-78
2023/07/04 08:44:52;;;;;;;7.80;3.20;;;;;;;30.60;25.72;100090.88;112895;1239;21946;-78
2023/07/04 08:48:00;;;;;;;9.10;3.50;;;;;;;30.57;25.56;100094.95;113049;1239;21937;-79
2023/07/04 08:50:49;;;;;;;17.60;4.40;;;;;;;30.46;25.21;100089.55;113058;1239;23707;-78
2023/07/04 08:54:15;;;;;;;8.30;3.60;;;;;;;30.44;25.27;100098.90;112303;1245;21953;-79
2023/07/04 08:57:49;;;;;;;8.40;4.20;;;;;;;30.46;25.17;100094.74;111679;1249;23642;-79
2023/07/04 09:00:35;;;;;;;5.50;3.30;;;;;;;30.44;25.58;100095.05;110971;1255;22697;-79
2023/07/04 09:03:53;;;;;;;13.80;4.40;;;;;;;30.45;25.02;100100.23;111494;1252;21974;-79
2023/07/04 09:07:40;;;;;;;;;;;;;;;;;;;;;
2023/07/04 09:10:39;;;;;;;6.00;3.80;;;;;;;30.25;25.49;100102.88;111075;1258;22980;-80
2023/07/04 09:13:52;;;;;;;11.50;4.60;;;;;;;30.29;25.64;100103.35;111502;1253;24296;-78
2023/07/04 09:16:58;;;;;;;;;;;;;;;;;;;;;
2023/07/04 09:19:46;;;;;;;8.50;4.70;;;;;;;30.56;25.38;100103.59;111103;1255;23594;-78
2023/07/04 09:22:38;;;;;;;10.50;4.40;;;;;;;30.63;25.20;100097.73;111243;1254;22428;-78
2023/07/04 09:25:18;;;;;;;11.70;4.40;;;;;;;30.66;24.62;100110.56;111183;1254;21975;-78
2023/07/04 09:27:50;;;;;;;9.70;3.80;;;;;;;30.68;24.82;100103.23;111381;1254;22060;-80
2023/07/04 09:30:56;;;;;;;11.80;4.20;;;;;;;30.67;24.77;100110.54;110985;1258;22018;-79
2023/07/04 09:33:54;;;;;;;8.90;4.10;;;;;;;30.63;24.63;100108.55;111106;1252;22032;-79
2023/07/04 09:36:33;;;;;;;10.70;4.00;;;;;;;30.67;24.51;100110.77;111460;1252;23024;-78
2023/07/04 09:39:10;;;;;;;11.60;4.40;;;;;;;30.63;24.69;100101.22;111725;1245;22574;-78
2023/07/04 09:42:09;;;;;;;;;;;;;;;;;;;;;
2023/07/04 09:45:19;;;;;;;8.60;5.10;;;;;;;30.83;24.37;100113.76;112164;1245;22052;-79
2023/07/04 09:47:52;;;;;;;;;;;;;;;30.87;24.32;100106.38;112166;1241;22665;-79
2023/07/04 09:50:41;;;;;;;5.60;4.70;;;;;;;30.87;24.32;100107.31;112620;1241;21977;-83
2023/07/04 09:53:24;;;;;;;8.10;5.30;;;;;;;30.85;24.17;100101.67;113137;1233;23658;-79
2023/07/04 09:56:14;;;;;;;10.00;5.50;;;;;;;30.75;24.48;100109.51;113588;1233;21949;-82
2023/07/04 09:59:32;;;;;;;;;;;;;;;;;;;;;
2023/07/04 10:02:35;;;;;;;11.60;6.10;;;;;;;30.64;24.47;100097.11;114046;1233;21956;-80
2023/07/04 10:05:38;;;;;;;13.30;6.00;;;;;;;30.62;24.17;100106.85;113258;1236;22026;-79
2023/07/04 10:08:16;;;;;;;7.70;5.60;;;;;;;30.63;24.54;100112.20;113195;1236;21958;-79
2023/07/04 10:10:57;;;;;;;10.70;6.20;;;;;;;30.66;24.25;100107.61;112467;1241;23675;-79
2023/07/04 10:13:38;;;;;;;7.30;6.10;;;;;;;30.72;24.21;100109.44;112424;1245;21946;-81
2023/07/04 10:16:23;;;;;;;15.90;6.20;;;;;;;30.83;24.40;100103.02;112174;1245;23607;-80
2023/07/04 10:19:15;;;;;;;7.00;5.80;;;;;;;30.81;24.37;100104.54;112095;1245;22713;-80
2023/07/04 10:21:51;;;;;;;10.40;6.90;;;;;;;30.80;24.28;100104.69;111580;1251;22127;-80
2023/07/04 10:25:06;;;;;;;8.60;6.10;;;;;;;30.71;24.26;100106.25;111886;1249;23590;-81
2023/07/04 10:28:17;;;;;;;8.20;5.90;;;;;;;30.61;24.69;100105.83;111580;1249;21934;-80
2023/07/04 10:30:58;;;;;;;7.60;6.50;;;;;;;30.49;24.64;100109.55;111393;1249;21954;-79
2023/07/04 10:33:58;;;;;;;11.20;6.50;;;;;;;30.47;25.11;100112.43;111811;1248;23673;-80
2023/07/04 10:36:41;;;;;;;11.50;7.90;;;;;;;30.45;25.14;100114.48;111923;1249;22103;-81
2023/07/04 10:39:30;;;;;;;10.70;8.10;;;;;;;30.16;25.15;100113.77;111911;1243;21961;-79
2023/07/04 10:42:28;;;;;;;19.60;9.80;;;;;;;29.95;25.31;100117.57;111925;1248;23600;-78
2023/07/04 10:45:14;;;;;;;11.50;8.10;;;;;;;29.88;25.29;100119.02;111789;1244;22729;-78
2023/07/04 10:48:01;;;;;;;13.60;8.80;;;;;;;29.74;25.55;100127.73;112329;1244;23626;-79
2023/07/04 10:50:56;;;;;;;9.40;7.70;;;;;;;29.46;25.99;100124.61;112211;1244;24379;-80
2023/07/04 10:53:29;;;;;;;17.40;10.30;;;;;;;29.34;26.62;100119.63;112328;1244;21957;-79
2023/07/04 10:56:51;;;;;;;13.70;9.40;;;;;;;29.32;27.02;100118.59;113068;1238;21946;-79
2023/07/04 11:00:26;;;;;;;14.70;8.60;;;;;;;29.36;26.81;100118.31;113375;1233;23672;-80
2023/07/04 11:03:09;;;;;;;10.50;9.40;;;;;;;29.25;26.58;100119.95;113565;1233;21956;-81
2023/07/04 11:06:11;;;;;;;12.20;9.20;;;;;;;29.08;26.98;100113.20;113545;1233;21951;-79
2023/07/04 11:08:47;;;;;;;10.80;9.10;;;;;;;28.96;27.21;100119.09;113703;1233;22321;-80
2023/07/04 11:11:33;;;;;;;11.40;10.30;;;;;;;28.84;27.02;100120.59;113324;1233;21949;-80
2023/07/04 11:14:40;;;;;;;10.40;9.00;;;;;;;28.69;27.26;100117.09;113393;1236;21932;-79
2023/07/04 11:17:39;;;;;;;12.10;10.90;;;;;;;28.64;27.17;100116.54;112281;1245;22148;-78
2023/07/04 11:20:52;;;;;;;18.70;10.00;;;;;;;28.58;27.10;100118.64;111884;1245;23604;-79
2023/07/04 11:23:53;;;;;;;11.00;9.50;;;;;;;28.53;27.30;100118.71;112203;1246;22001;-79
2023/07/04 11:27:01;;;;;;;13.00;10.70;;;;;;;28.48;27.27;100115.98;112123;1245;21972;-79
2023/07/04 11:30:05;;;;;;;11.80;10.70;;;;;;;28.45;27.31;100114.19;112082;1245;21950;-78
2023/07/04 11:32:58;;;;;;;12.90;11.00;;;;;;;28.41;27.22;100110.60;112218;1245;21954;-79
2023/07/04 11:36:25;;;;;;;11.10;9.70;;;;;;;28.26;27.14;100111.04;112396;1245;21974;-78
2023/07/04 11:39:38;;;;;;;12.90;10.70;;;;;;;28.15;27.68;100114.10;112008;1246;22443;-80
2023/07/04 11:42:48;;;;;;;14.90;10.40;;;;;;;28.21;28.03;100115.88;111209;1253;21969;-78
2023/07/04 11:45:42;;;;;;;12.30;9.80;;;;;;;28.23;27.77;100106.06;111511;1250;23738;-78
2023/07/04 11:48:57;;;;;;;11.50;9.60;;;;;;;28.17;27.93;100111.24;111525;1251;22026;-79
2023/07/04 11:51:29;;;;;;;19.20;11.00;;;;;;;28.13;27.98;100105.03;111221;1251;21961;-78
2023/07/04 11:54:01;;;;;;;12.40;10.30;;;;;;;28.15;27.84;100101.57;111708;1241;21951;-78
2023/07/04 11:56:31;;;;;;;12.30;11.00;;;;;;;28.18;27.87;100106.47;112323;1245;22398;-79
2023/07/04 11:59:47;;;;;;;16.60;13.10;;;;;;;28.17;27.71;100109.06;111812;1250;23622;-78
2023/07/04 12:02:30;;;;;;;11.30;10.20;;;;;;;28.21;27.69;100103.77;111593;1251;23713;-78
2023/07/04 12:05:24;;;;;;;12.50;11.20;;;;;;;28.30;27.64;100100.34;111431;1250;22059;-78
2023/07/04 12:08:08;;;;;;;16.50;11.40;;;;;;;28.37;27.59;100097.73;111496;1250;22005;-80
2023/07/04 12:10:41;;;;;;;13.10;11.90;;;;;;;28.45;27.63;100101.64;111450;1250;24450;-79
2023/07/04 12:13:20;;;;;;;12.90;10.70;;;;;;;28.58;27.66;100101.75;111294;1253;23714;-78
2023/07/04 12:15:50;;;;;;;12.10;10.90;;;;;;;28.69;27.59;100106.55;111585;1248;23000;-80
2023/07/04 12:18:27;;;;;;;15.50;12.10;;;;;;;28.73;27.35;100102.20;112011;1240;22061;-78
2023/07/04 12:21:01;;;;;;;12.80;11.60;;;;;;;28.72;27.32;100104.27;111978;1244;23571;-80
2023/07/04 12:23:30;;;;;;;13.50;11.40;;;;;;;28.71;27.12;100104.72;112120;1245;21969;-80
2023/07/04 12:26:04;;;;;;;16.20;10.90;;;;;;;28.68;27.28;100098.08;112265;1245;23004;-80
2023/07/04 12:28:40;;;;;;;12.20;10.90;;;;;;;28.64;27.45;100097.03;112154;1245;21968;-79
2023/07/04 12:31:17;;;;;;;15.80;11.30;;;;;;;28.57;27.76;100106.03;111675;1251;22245;-78
2023/07/04 12:34:02;;;;;;;13.10;11.70;;;;;;;28.52;27.87;100099.33;111484;1251;21974;-78
2023/07/04 12:36:44;;;;;;;14.60;12.00;;;;;;;28.41;27.79;100097.64;111341;1248;21970;-77
2023/07/04 12:39:15;;;;;;;14.20;11.20;;;;;;;28.33;27.67;100098.41;111563;1249;21963;-80
2023/07/04 12:42:12;;;;;;;14.10;12.40;;;;;;;28.33;27.47;100098.45;111772;1249;22361;-83
2023/07/04 12:44:47;;;;;;;13.90;12.60;;;;;;;28.35;27.64;100092.90;111855;1245;21960;-80
2023/07/04 12:47:33;;;;;;;12.80;11.40;;;;;;;28.38;27.66;100093.91;112334;1245;21958;-81
2023/07/04 12:50:32;;;;;;;16.20;11.80;;;;;;;28.42;27.64;100095.05;112475;1244;24069;-78
2023/07/04 12:53:15;;;;;;;18.20;13.70;;;;;;;28.42;27.48;100080.86;112017;1248;24022;-80
2023/07/04 12:55:58;;;;;;;13.10;11.90;;;;;;;28.54;27.38;100095.57;111923;1245;21989;-81
2023/07/04 12:59:33;;;;;;;15.40;13.90;;;;;;;28.59;27.37;100093.23;112443;1243;23798;-81
2023/07/04 13:02:25;;;;;;;18.10;15.00;;;;;;;28.62;27.24;100093.80;111791;1251;23757;-81